createdAt,value
2019-02-07T00:01:57.274Z,-0.70
2019-02-07T00:04:25.034Z,-0.60
2019-02-07T00:06:54.651Z,-0.70
2019-02-07T00:09:22.452Z,-0.70
2019-02-07T00:11:50.283Z,-0.60
2019-02-07T00:14:18.068Z,-0.60
2019-02-07T00:16:45.835Z,-0.60
2019-02-07T00:19:13.804Z,-0.50
2019-02-07T00:21:41.555Z,-0.60
2019-02-07T00:24:09.240Z,-0.60
2019-02-07T00:26:38.103Z,-0.50
2019-02-07T00:29:05.955Z,-0.50
2019-02-07T00:31:34.770Z,-0.40
2019-02-07T00:34:02.691Z,-0.40
2019-02-07T00:36:30.507Z,-0.40
2019-02-07T00:38:58.407Z,-0.30
2019-02-07T00:41:26.161Z,-0.30
2019-02-07T00:43:54.289Z,-0.30
2019-02-07T00:46:22.171Z,-0.30
2019-02-07T00:48:49.942Z,-0.30
2019-02-07T00:51:17.756Z,-0.30
2019-02-07T00:53:45.391Z,-0.30
2019-02-07T00:56:13.171Z,-0.30
2019-02-07T00:58:40.929Z,-0.30
2019-02-07T01:01:08.727Z,-0.40
2019-02-07T01:03:36.577Z,-0.40
2019-02-07T01:06:04.528Z,-0.40
2019-02-07T01:08:33.373Z,-0.40
2019-02-07T01:11:01.144Z,-0.40
2019-02-07T01:13:29.128Z,-0.50
2019-02-07T01:15:56.969Z,-0.50
2019-02-07T01:18:24.838Z,-0.50
2019-02-07T01:20:52.655Z,-0.50
2019-02-07T01:23:20.426Z,-0.60
2019-02-07T01:25:48.151Z,-0.60
2019-02-07T01:28:15.920Z,-0.60
2019-02-07T01:30:43.820Z,-0.60
2019-02-07T01:33:11.564Z,-0.60
2019-02-07T01:35:39.565Z,-0.60
2019-02-07T01:38:07.307Z,-0.60
2019-02-07T01:40:35.099Z,-0.70
2019-02-07T01:43:02.839Z,-0.70
2019-02-07T01:45:30.769Z,-0.70
2019-02-07T01:47:58.551Z,-0.70
2019-02-07T01:50:26.421Z,-0.70
2019-02-07T01:52:54.356Z,-0.70
2019-02-07T01:55:22.328Z,-0.80
2019-02-07T01:57:50.237Z,-0.80
2019-02-07T02:00:18.594Z,-0.80
2019-02-07T02:02:46.703Z,-0.80
2019-02-07T02:05:15.629Z,-0.80
2019-02-07T02:07:43.846Z,-0.80
2019-02-07T02:10:16.261Z,-0.90
2019-02-07T02:12:43.785Z,-0.90
2019-02-07T02:15:11.498Z,-0.90
2019-02-07T02:17:39.022Z,-0.90
2019-02-07T02:20:07.086Z,-0.90
2019-02-07T02:22:34.540Z,-0.90
2019-02-07T02:25:02.541Z,-0.90
2019-02-07T02:27:30.069Z,-1.00
2019-02-07T02:29:57.500Z,-1.00
2019-02-07T02:32:24.946Z,-1.00
2019-02-07T02:34:52.388Z,-1.00
2019-02-07T02:37:19.823Z,-1.00
2019-02-07T02:39:47.182Z,-1.10
2019-02-07T02:42:14.922Z,-1.10
2019-02-07T02:44:42.644Z,-1.10
2019-02-07T02:47:10.236Z,-1.10
2019-02-07T02:49:37.741Z,-1.10
2019-02-07T02:52:05.279Z,-1.10
2019-02-07T02:54:39.833Z,-1.10
2019-02-07T02:57:07.280Z,-1.10
2019-02-07T02:59:34.686Z,-1.10
2019-02-07T03:02:22.266Z,-1.20
2019-02-07T03:04:58.839Z,-1.20
2019-02-07T03:07:50.233Z,-1.20
2019-02-07T03:10:40.482Z,-1.20
2019-02-07T03:13:25.913Z,-1.20
2019-02-07T03:16:12.924Z,-1.10
2019-02-07T03:18:58.811Z,-1.20
2019-02-07T03:21:47.465Z,-1.20
2019-02-07T03:24:43.482Z,-1.20
2019-02-07T03:27:36.333Z,-1.20
2019-02-07T03:30:31.030Z,-1.20
2019-02-07T03:33:23.931Z,-1.20
2019-02-07T03:36:07.952Z,-1.30
2019-02-07T03:38:53.329Z,-1.30
2019-02-07T03:41:37.709Z,-1.30
2019-02-07T03:44:27.701Z,-1.30
2019-02-07T03:47:06.910Z,-1.30
2019-02-07T03:49:47.602Z,-1.30
2019-02-07T03:52:33.527Z,-1.30
2019-02-07T03:55:29.430Z,-1.40
2019-02-07T03:58:19.265Z,-1.40
2019-02-07T04:01:14.790Z,-1.40
2019-02-07T04:03:59.972Z,-1.30
2019-02-07T04:06:52.957Z,-1.30
2019-02-07T04:09:48.818Z,-1.30
2019-02-07T04:12:35.757Z,-1.30
2019-02-07T04:15:17.879Z,-1.30
2019-02-07T04:18:04.795Z,-1.30
2019-02-07T04:20:47.452Z,-1.30
2019-02-07T04:23:31.697Z,-1.20
2019-02-07T04:26:33.568Z,-1.20
2019-02-07T04:29:23.726Z,-1.20
2019-02-07T04:32:09.043Z,-1.20
2019-02-07T04:34:53.913Z,-1.30
2019-02-07T04:37:46.542Z,-1.30
2019-02-07T04:40:36.510Z,-1.30
2019-02-07T04:43:26.390Z,-1.30
2019-02-07T04:46:28.312Z,-1.30
2019-02-07T04:49:13.400Z,-1.30
2019-02-07T04:51:59.023Z,-1.30
2019-02-07T04:54:38.033Z,-1.30
2019-02-07T04:57:21.516Z,-1.20
2019-02-07T05:00:09.955Z,-1.20
2019-02-07T05:02:55.607Z,-1.30
2019-02-07T05:05:41.124Z,-1.20
2019-02-07T05:08:21.927Z,-1.10
2019-02-07T05:11:24.106Z,-1.00
2019-02-07T05:14:13.998Z,-1.00
2019-02-07T05:16:59.377Z,-0.90
2019-02-07T05:19:47.066Z,-0.80
2019-02-07T05:22:43.052Z,-0.60
2019-02-07T05:25:32.796Z,-0.50
2019-02-07T05:28:18.201Z,-0.40
2019-02-07T05:31:04.576Z,-0.30
2019-02-07T05:33:57.782Z,-0.20
2019-02-07T05:36:50.742Z,-0.10
2019-02-07T05:39:36.081Z,-0.10
2019-02-07T05:42:22.727Z,0.00
2019-02-07T05:45:08.188Z,0.00
2019-02-07T05:47:58.087Z,0.00
2019-02-07T05:50:42.506Z,0.00
2019-02-07T05:53:35.729Z,0.00
2019-02-07T05:56:19.922Z,0.10
2019-02-07T05:59:16.896Z,0.10
2019-02-07T06:01:51.800Z,0.10
2019-02-07T06:04:39.766Z,0.10
2019-02-07T06:07:38.899Z,0.00
2019-02-07T06:10:40.226Z,0.00
2019-02-07T06:13:25.899Z,0.10
2019-02-07T06:16:18.430Z,0.10
2019-02-07T06:19:05.685Z,0.10
2019-02-07T06:21:58.935Z,0.10
2019-02-07T06:24:43.942Z,0.10
2019-02-07T06:27:29.245Z,0.10
2019-02-07T06:30:16.182Z,0.20
2019-02-07T06:33:01.352Z,0.10
2019-02-07T06:35:48.384Z,0.10
2019-02-07T06:38:38.013Z,0.10
2019-02-07T06:41:28.206Z,0.10
2019-02-07T06:44:33.397Z,0.20
2019-02-07T06:47:29.732Z,0.20
2019-02-07T06:50:15.392Z,0.20
2019-02-07T06:53:00.988Z,0.20
2019-02-07T06:55:46.057Z,0.10
2019-02-07T06:58:26.688Z,0.00
2019-02-07T07:01:06.395Z,0.00
2019-02-07T07:03:53.341Z,0.00
2019-02-07T07:06:49.448Z,-0.10
2019-02-07T07:09:32.571Z,0.00
2019-02-07T07:12:17.960Z,0.10
2019-02-07T07:15:03.379Z,0.00
2019-02-07T07:17:49.047Z,0.10
2019-02-07T07:20:34.461Z,0.20
2019-02-07T07:23:20.214Z,0.20
2019-02-07T07:26:09.413Z,0.20
2019-02-07T07:28:54.427Z,0.20
2019-02-07T07:31:59.645Z,0.20
2019-02-07T07:34:46.685Z,0.20
2019-02-07T07:37:33.793Z,0.20
2019-02-07T07:40:29.762Z,0.20
2019-02-07T07:43:15.337Z,0.40
2019-02-07T07:46:08.210Z,0.50
2019-02-07T07:48:57.752Z,0.50
2019-02-07T07:52:02.460Z,0.50
2019-02-07T07:54:51.074Z,0.60
2019-02-07T07:57:47.123Z,0.60
2019-02-07T08:00:33.173Z,0.60
2019-02-07T08:03:15.030Z,0.70
2019-02-07T08:05:57.889Z,0.70
2019-02-07T08:08:53.862Z,0.80
2019-02-07T08:11:31.577Z,0.90
2019-02-07T08:14:16.885Z,1.00
2019-02-07T08:17:22.055Z,1.10
2019-02-07T08:20:13.965Z,1.20
2019-02-07T08:23:19.115Z,1.30
2019-02-07T08:26:09.224Z,1.50
2019-02-07T08:28:59.249Z,1.70
2019-02-07T08:31:40.802Z,1.70
2019-02-07T08:34:26.408Z,1.80
2019-02-07T08:37:13.459Z,2.00
2019-02-07T08:40:00.399Z,2.10
2019-02-07T08:42:46.034Z,2.30
2019-02-07T08:45:35.941Z,2.50
2019-02-07T08:48:30.001Z,2.70
2019-02-07T08:51:15.743Z,2.90
2019-02-07T08:54:01.138Z,3.00
2019-02-07T08:56:54.152Z,3.10
2019-02-07T08:59:33.039Z,3.40
2019-02-07T09:02:34.891Z,3.60
2019-02-07T09:05:26.704Z,3.80
2019-02-07T09:08:16.506Z,4.10
2019-02-07T09:11:06.414Z,4.20
2019-02-07T09:13:53.991Z,4.30
2019-02-07T09:16:50.089Z,4.40
2019-02-07T09:19:35.654Z,4.50
2019-02-07T09:22:31.828Z,4.80
2019-02-07T09:25:17.965Z,4.90
2019-02-07T09:28:03.289Z,5.10
2019-02-07T09:31:05.566Z,5.20
2019-02-07T09:33:44.919Z,5.40
2019-02-07T09:36:35.816Z,5.50
2019-02-07T09:39:32.265Z,5.60
2019-02-07T09:42:28.162Z,5.70
2019-02-07T09:45:13.606Z,5.80
2019-02-07T09:47:52.059Z,5.80
2019-02-07T09:50:37.757Z,5.80
2019-02-07T09:53:24.209Z,5.90
2019-02-07T09:56:29.333Z,5.90
2019-02-07T09:59:16.372Z,5.90
2019-02-07T10:02:22.866Z,5.90
2019-02-07T10:04:57.409Z,5.90
2019-02-07T10:07:44.373Z,5.90
2019-02-07T10:10:37.457Z,6.00
2019-02-07T10:13:22.866Z,6.00
2019-02-07T10:16:01.071Z,6.00
2019-02-07T10:19:03.225Z,6.00
2019-02-07T10:21:53.299Z,6.10
2019-02-07T10:24:43.269Z,6.10
2019-02-07T10:27:38.910Z,6.10
2019-02-07T10:30:27.916Z,6.10
2019-02-07T10:33:11.098Z,6.10
2019-02-07T10:35:54.953Z,6.10
2019-02-07T10:38:32.398Z,6.20
2019-02-07T10:41:37.272Z,6.20
2019-02-07T10:44:22.959Z,6.30
2019-02-07T10:47:08.527Z,6.30
2019-02-07T10:49:59.407Z,6.30
2019-02-07T10:52:59.561Z,6.30
2019-02-07T10:55:42.086Z,6.20
2019-02-07T10:58:37.902Z,6.10
2019-02-07T11:01:19.068Z,6.10
2019-02-07T11:04:08.742Z,5.90
2019-02-07T11:06:55.693Z,5.70
2019-02-07T11:09:50.261Z,5.40
2019-02-07T11:12:40.203Z,5.20
2019-02-07T11:15:33.658Z,5.20
2019-02-07T11:18:19.294Z,5.10
2019-02-07T11:21:13.212Z,5.10
2019-02-07T11:24:03.269Z,5.10
2019-02-07T11:26:44.574Z,5.20
2019-02-07T11:29:29.951Z,5.30
2019-02-07T11:32:16.609Z,5.30
2019-02-07T11:35:11.565Z,5.40
2019-02-07T11:37:55.901Z,5.40
2019-02-07T11:40:37.350Z,5.50
2019-02-07T11:43:28.093Z,5.60
2019-02-07T11:46:23.908Z,5.70
2019-02-07T11:49:29.323Z,5.90
2019-02-07T11:52:14.603Z,6.10
2019-02-07T11:54:53.457Z,6.20
2019-02-07T11:57:43.274Z,6.30
2019-02-07T12:00:36.976Z,6.40
2019-02-07T12:03:38.673Z,6.40
2019-02-07T12:06:38.074Z,6.50
2019-02-07T12:09:30.213Z,6.50
2019-02-07T12:12:06.096Z,6.60
2019-02-07T12:14:53.135Z,6.60
2019-02-07T12:17:58.175Z,6.60
2019-02-07T12:20:45.146Z,6.60
2019-02-07T12:23:30.372Z,6.60
2019-02-07T12:26:10.761Z,6.50
2019-02-07T12:28:56.385Z,6.50
2019-02-07T12:31:41.966Z,6.50
2019-02-07T12:34:30.657Z,6.50
2019-02-07T12:37:07.426Z,6.50
2019-02-07T12:40:02.150Z,6.50
2019-02-07T12:42:58.213Z,6.30
2019-02-07T12:45:38.542Z,6.10
2019-02-07T12:48:31.590Z,6.00
2019-02-07T12:51:07.079Z,6.00
2019-02-07T12:53:54.181Z,5.90
2019-02-07T12:56:41.105Z,5.90
2019-02-07T12:59:19.578Z,5.90
2019-02-07T13:02:06.738Z,6.00
2019-02-07T13:05:08.711Z,6.20
2019-02-07T13:07:54.667Z,6.40
2019-02-07T13:10:47.824Z,6.30
2019-02-07T13:13:41.982Z,6.30
2019-02-07T13:16:28.998Z,6.40
2019-02-07T13:19:14.814Z,6.50
2019-02-07T13:22:10.518Z,6.50
2019-02-07T13:25:00.592Z,6.60
2019-02-07T13:27:53.373Z,6.70
2019-02-07T13:30:49.193Z,6.80
2019-02-07T13:33:27.935Z,6.90
2019-02-07T13:36:26.962Z,7.00
2019-02-07T13:39:04.445Z,7.10
2019-02-07T13:41:43.355Z,7.20
2019-02-07T13:44:30.856Z,7.40
2019-02-07T13:47:15.925Z,7.50
2019-02-07T13:50:01.769Z,7.70
2019-02-07T13:52:57.336Z,7.70
2019-02-07T13:55:37.595Z,7.80
2019-02-07T13:58:17.157Z,7.80
2019-02-07T14:01:04.186Z,7.80
2019-02-07T14:03:57.233Z,7.80
2019-02-07T14:06:47.020Z,7.90
2019-02-07T14:09:40.204Z,8.00
2019-02-07T14:12:21.257Z,8.10
2019-02-07T14:15:04.978Z,8.20
2019-02-07T14:17:50.251Z,8.20
2019-02-07T14:20:50.629Z,8.20
2019-02-07T14:23:38.612Z,8.30
2019-02-07T14:26:35.168Z,8.20
2019-02-07T14:29:13.178Z,8.20
2019-02-07T14:31:54.234Z,8.30
2019-02-07T14:34:47.288Z,8.40
2019-02-07T14:37:38.418Z,8.40
2019-02-07T14:40:33.179Z,8.60
2019-02-07T14:43:22.744Z,8.60
2019-02-07T14:46:08.455Z,8.70
2019-02-07T14:48:35.902Z,8.70
2019-02-07T14:51:06.391Z,8.70
2019-02-07T14:53:33.820Z,8.80
2019-02-07T14:56:01.270Z,8.80
2019-02-07T14:58:28.712Z,8.70
2019-02-07T15:00:56.137Z,8.70
2019-02-07T15:03:26.075Z,8.60
2019-02-07T15:05:53.493Z,8.60
2019-02-07T15:08:20.946Z,8.50
2019-02-07T15:10:48.408Z,8.40
2019-02-07T15:13:15.884Z,8.40
2019-02-07T15:15:43.340Z,8.30
2019-02-07T15:18:10.745Z,8.20
2019-02-07T15:20:38.745Z,8.10
2019-02-07T15:23:06.298Z,8.10
2019-02-07T15:25:33.858Z,8.00
2019-02-07T15:28:01.463Z,7.90
2019-02-07T15:30:28.921Z,7.80
2019-02-07T15:32:56.413Z,7.80
2019-02-07T15:35:30.189Z,7.70
2019-02-07T15:37:58.954Z,7.70
2019-02-07T15:40:26.532Z,7.60
2019-02-07T15:42:54.520Z,7.50
2019-02-07T15:45:22.192Z,7.50
2019-02-07T15:47:50.566Z,7.40
2019-02-07T15:50:20.648Z,7.30
2019-02-07T15:52:48.434Z,7.30
2019-02-07T15:55:16.096Z,7.20
2019-02-07T15:57:43.645Z,7.10
2019-02-07T16:00:32.294Z,6.90
2019-02-07T16:03:03.521Z,6.70
2019-02-07T16:05:31.362Z,6.70
2019-02-07T16:07:58.837Z,6.70
2019-02-07T16:10:26.312Z,6.70
2019-02-07T16:12:54.792Z,6.70
2019-02-07T16:15:22.234Z,6.70
2019-02-07T16:17:49.805Z,6.60
2019-02-07T16:20:17.810Z,6.50
2019-02-07T16:22:45.891Z,6.50
2019-02-07T16:25:14.170Z,6.60
2019-02-07T16:27:41.694Z,6.60
2019-02-07T16:30:11.656Z,6.60
2019-02-07T16:32:39.246Z,6.60
2019-02-07T16:35:07.977Z,6.60
2019-02-07T16:37:35.589Z,6.50
2019-02-07T16:40:05.114Z,6.50
2019-02-07T16:42:32.618Z,6.50
2019-02-07T16:45:00.062Z,6.40
2019-02-07T16:47:27.538Z,6.30
2019-02-07T16:49:55.002Z,6.20
2019-02-07T16:52:22.523Z,6.30
2019-02-07T16:54:50.412Z,6.30
2019-02-07T16:57:18.078Z,6.20
2019-02-07T16:59:53.115Z,6.20
2019-02-07T17:02:20.694Z,6.10
2019-02-07T17:04:48.223Z,5.80
2019-02-07T17:07:16.038Z,5.80
2019-02-07T17:09:43.958Z,5.70
2019-02-07T17:12:12.101Z,5.60
2019-02-07T17:14:39.726Z,5.60
2019-02-07T17:17:07.377Z,5.50
2019-02-07T17:19:35.163Z,5.50
2019-02-07T17:22:02.998Z,5.50
2019-02-07T17:24:30.447Z,5.50
2019-02-07T17:26:57.871Z,5.50
2019-02-07T17:29:25.604Z,5.40
2019-02-07T17:31:53.116Z,5.40
2019-02-07T17:34:21.082Z,5.40
2019-02-07T17:36:50.376Z,5.40
2019-02-07T17:39:18.025Z,5.30
2019-02-07T17:41:45.670Z,5.20
2019-02-07T17:44:13.321Z,5.20
2019-02-07T17:46:40.959Z,5.20
2019-02-07T17:49:08.953Z,5.20
2019-02-07T17:51:36.753Z,5.20
2019-02-07T17:54:04.836Z,5.20
2019-02-07T17:56:32.627Z,5.20
2019-02-07T17:59:00.238Z,5.20
2019-02-07T18:01:27.796Z,5.20
2019-02-07T18:03:55.497Z,5.20
2019-02-07T18:06:22.963Z,5.20
2019-02-07T18:08:51.021Z,5.10
2019-02-07T18:11:18.661Z,5.10
2019-02-07T18:13:46.240Z,5.00
2019-02-07T18:16:13.694Z,5.00
2019-02-07T18:18:41.244Z,5.00
2019-02-07T18:21:09.115Z,4.90
2019-02-07T18:23:36.598Z,4.90
2019-02-07T18:26:04.241Z,4.80
2019-02-07T18:28:31.767Z,4.80
2019-02-07T18:30:59.237Z,4.80
2019-02-07T18:33:26.686Z,4.80
2019-02-07T18:35:54.282Z,4.70
2019-02-07T18:38:21.784Z,4.70
2019-02-07T18:40:49.273Z,4.70
2019-02-07T18:43:16.859Z,4.60
2019-02-07T18:45:45.488Z,4.60
2019-02-07T18:48:12.948Z,4.60
2019-02-07T18:50:40.497Z,4.50
2019-02-07T18:53:08.614Z,4.40
2019-02-07T18:55:36.119Z,4.40
2019-02-07T18:58:04.803Z,4.40
2019-02-07T19:00:33.892Z,4.30
2019-02-07T19:03:01.643Z,4.30
2019-02-07T19:05:29.338Z,4.30
2019-02-07T19:07:56.937Z,4.20
2019-02-07T19:10:24.912Z,4.20
2019-02-07T19:12:52.575Z,4.20
2019-02-07T19:15:32.744Z,4.20
2019-02-07T19:18:00.290Z,4.10
2019-02-07T19:20:28.527Z,4.10
2019-02-07T19:22:56.171Z,3.90
2019-02-07T19:25:23.810Z,4.00
2019-02-07T19:27:51.678Z,3.80
2019-02-07T19:30:25.673Z,3.80
2019-02-07T19:32:53.303Z,3.70
2019-02-07T19:35:20.902Z,3.60
2019-02-07T19:37:48.669Z,3.50
2019-02-07T19:40:16.515Z,3.50
2019-02-07T19:42:44.151Z,3.50
2019-02-07T19:45:13.766Z,3.50
2019-02-07T19:47:41.578Z,3.40
2019-02-07T19:50:11.917Z,3.40
2019-02-07T19:52:39.779Z,3.40
2019-02-07T19:55:10.331Z,3.50
2019-02-07T19:57:37.895Z,3.50
2019-02-07T20:00:08.627Z,3.50
2019-02-07T20:02:36.305Z,3.50
2019-02-07T20:05:05.357Z,3.50
2019-02-07T20:07:32.959Z,3.50
2019-02-07T20:10:00.512Z,3.50
2019-02-07T20:12:27.993Z,3.50
2019-02-07T20:17:52.090Z,3.40
2019-02-07T20:20:20.173Z,3.30
2019-02-07T20:22:48.352Z,3.20
2019-02-07T20:25:16.498Z,3.20
2019-02-07T20:27:44.422Z,3.20
2019-02-07T20:30:15.990Z,3.10
2019-02-07T20:32:43.872Z,3.00
2019-02-07T20:35:12.096Z,3.00
2019-02-07T20:37:40.270Z,2.90
2019-02-07T20:40:09.083Z,2.90
2019-02-07T20:43:07.317Z,2.80
2019-02-07T20:46:02.443Z,2.80
2019-02-07T20:49:10.866Z,2.70
2019-02-07T20:52:03.648Z,2.70
2019-02-07T20:55:09.469Z,2.60
2019-02-07T20:58:18.151Z,2.50
2019-02-07T21:01:25.495Z,2.50
2019-02-07T21:04:08.099Z,2.40
2019-02-07T21:06:48.816Z,2.30
2019-02-07T21:09:36.649Z,2.30
2019-02-07T21:12:29.559Z,2.30
2019-02-07T21:15:18.895Z,2.20
2019-02-07T21:18:02.547Z,2.20
2019-02-07T21:20:51.325Z,2.20
2019-02-07T21:23:38.888Z,2.10
2019-02-07T21:26:29.377Z,2.00
2019-02-07T21:32:44.801Z,1.90
2019-02-07T21:35:32.819Z,1.90
2019-02-07T21:38:27.639Z,1.80
2019-02-07T21:41:07.672Z,1.80
2019-02-07T21:44:05.311Z,1.90
2019-02-07T21:46:51.968Z,1.80
2019-02-07T21:49:38.601Z,1.90
2019-02-07T21:52:41.667Z,1.80
2019-02-07T21:55:21.642Z,1.90
2019-02-07T21:58:09.238Z,1.90
2019-02-07T22:00:57.625Z,1.90
2019-02-07T22:03:22.654Z,1.90
2019-02-07T22:05:50.669Z,1.90
2019-02-07T22:08:18.557Z,1.90
2019-02-07T22:10:47.159Z,1.90
2019-02-07T22:13:15.027Z,1.90
2019-02-07T22:15:42.994Z,2.00
2019-02-07T22:18:10.991Z,2.00
2019-02-07T22:20:38.884Z,2.10
2019-02-07T22:23:06.716Z,2.10
2019-02-07T22:25:34.542Z,2.10
2019-02-07T22:28:02.719Z,2.10
2019-02-07T22:30:32.118Z,2.10
2019-02-07T22:33:00.068Z,2.10
2019-02-07T22:35:27.972Z,2.10
2019-02-07T22:37:55.728Z,2.10
2019-02-07T22:40:23.650Z,2.10
2019-02-07T22:42:51.447Z,2.10
2019-02-07T22:45:19.811Z,2.10
2019-02-07T22:47:47.754Z,2.10
2019-02-07T22:50:20.648Z,2.20
2019-02-07T22:52:48.393Z,2.30
2019-02-07T22:55:16.547Z,2.30
2019-02-07T22:57:44.619Z,2.40
2019-02-07T23:01:08.787Z,2.40
2019-02-07T23:03:47.927Z,2.50
2019-02-07T23:06:16.014Z,2.70
2019-02-07T23:08:44.052Z,2.80
2019-02-07T23:11:11.903Z,2.90
2019-02-07T23:13:39.696Z,3.10
2019-02-07T23:16:08.390Z,3.30
2019-02-07T23:18:37.069Z,3.40
2019-02-07T23:21:05.428Z,3.60
2019-02-07T23:23:33.320Z,3.70
2019-02-07T23:26:01.124Z,3.90
2019-02-07T23:28:29.041Z,4.10
2019-02-07T23:30:56.855Z,4.20
2019-02-07T23:33:24.636Z,4.30
2019-02-07T23:35:52.418Z,4.40
2019-02-07T23:38:20.547Z,4.40
2019-02-07T23:40:48.325Z,4.50
2019-02-07T23:43:16.107Z,4.60
2019-02-07T23:45:43.922Z,4.70
2019-02-07T23:48:11.853Z,4.80
2019-02-07T23:50:39.665Z,4.80
2019-02-07T23:53:14.432Z,4.90
2019-02-07T23:55:38.357Z,4.90
2019-02-07T23:58:06.142Z,4.90
